Kezdőlap
METAR-TAF:

METAR-TAF

Repülőterek :

Sainte-Marie, Madagaszkár

földrajzi szélesség: 17-05S, földrajzi hosszúság: 049-49E, magasság: 2 m

Jelenlegi meteorológiai megfigyelések

A jelentés 1 órával és 15 perccel ezelõtt készült, 12:00 UTC
Déli szél 10 kt
Hőmérséklet 25°C
Páratartalom 69%
Légköri nyomás 1019 hPa
Látótávolság 10 km, vagy több
Szórványos felhőzet 1700 lábon
Záporok a közelben,

METAR: FMMS 221200Z 18010KT 9999 VCSH SCT017 25/19 Q1019

Idő: 16:15 (13:15 UTC)


TAF: hiányzik

Meteorológiai megfigyelések és előrejelzések több, mint 4000 repülőtéren (METAR és TAF jelentéseket).

A térképen piros és sárga pontok jelzik az elérhető meteorológiai állomásokat.

Mozgassa az egeret a pont fölött, hogy megjelenjen az állomás neve.

Azután kattintson az időjárási megfigyelések és előrejelzések megtekintéséhez.

A térkép megváltoztatása: kattintson a fekete keresztel jelölt zöld gombra ráközelítéshez, a vonallal jelölt zöld gombra távolításhoz, vagy a zöld nyilakra a szomszédos térképek eléréséhez.


METAR-TAF: